»·PEaware :: N585MJ KELP-KTUS

N585MJ :: KELP-KTUS

FLIGHT INFORMATION

Flight Status: Arrived
Operator: Privately registered:
United States
More flights under this callsign
Pilot: Michael C. (29659)
Aircraft: Unknown
(LEG2)
More flights by this aircraft type
Origin: KELP El Paso Intl
United States
Destination: KTUS Tucson Intl
United States
More flights between these airports :: More routes between these airports
Route: +HANCH V16 ANIMA T306 TUS
File this flight plan on PilotEdge
Remarks:
Altitude:
(Current/Filed)
12,000ft
Speed:
(Current/Filed)
260kts
Departed: 13-Sep-20 10:00 AM
Arrived: 13-Sep-20 11:10 AM
Distance/Time
Traveled:
233nm/1:10
Distance/Time
To Go:
Arrived

Flight Plot

Page will automatically refresh every two minutes.

Flight plan parsing failed; only flown route is shown


Map Options




Map Legend


Flown Route
Filed Route
Departure Airport
Arrival Airport
Navaid (VOR, NDB)
Fix

Horizontal Profiles

Position Reports

Time Latitude Longitude Heading Altitude Ground
Speed
13-Sep-20 09:43 31.794734 -106.384586 311 3960ft 0kts
13-Sep-20 09:44 31.794734 -106.384586 311 3960ft 0kts
13-Sep-20 09:45 31.794734 -106.384586 311 3960ft 0kts
13-Sep-20 09:46 31.794734 -106.384586 311 3960ft 0kts
13-Sep-20 09:47 31.794734 -106.384586 311 3960ft 0kts
13-Sep-20 09:48 31.794738 -106.384592 311 3960ft 0kts
13-Sep-20 09:49 31.795539 -106.384072 78 3960ft 6kts
13-Sep-20 09:50 31.795952 -106.381356 76 3960ft 9kts
13-Sep-20 09:51 31.797487 -106.378965 45 3960ft 9kts
13-Sep-20 09:52 31.799470 -106.377534 13 3960ft 8kts
13-Sep-20 09:53 31.799714 -106.374738 90 3960ft 10kts
13-Sep-20 09:54 31.799534 -106.370966 94 3960ft 12kts
13-Sep-20 09:55 31.799336 -106.366826 91 3960ft 12kts
13-Sep-20 09:56 31.799107 -106.362538 92 3960ft 13kts
13-Sep-20 09:57 31.799533 -106.360371 359 3960ft 0kts
13-Sep-20 09:58 31.799548 -106.360371 359 3960ft 1kts
13-Sep-20 09:59 31.801230 -106.374589 275 4224ft 126kts
13-Sep-20 10:00 31.765439 -106.413441 209 5357ft 222kts
13-Sep-20 10:01 31.711567 -106.394304 130 6600ft 230kts
13-Sep-20 10:02 31.670819 -106.338764 130 8025ft 219kts
13-Sep-20 10:03 31.626068 -106.296299 106 9404ft 210kts
13-Sep-20 10:04 31.660979 -106.255591 351 10610ft 216kts
13-Sep-20 10:05 31.696340 -106.308645 296 11909ft 218kts
13-Sep-20 10:06 31.721966 -106.381451 295 12005ft 257kts
13-Sep-20 10:07 31.749527 -106.461820 291 11997ft 268kts
13-Sep-20 10:08 31.771250 -106.546192 287 12015ft 272kts
13-Sep-20 10:09 31.794697 -106.631494 288 12018ft 275kts
13-Sep-20 10:10 31.816778 -106.717889 276 12021ft 275kts
13-Sep-20 10:11 31.818198 -106.807578 268 12017ft 275kts
13-Sep-20 10:12 31.818268 -106.897833 268 12017ft 276kts
13-Sep-20 10:13 31.819802 -106.988542 270 12018ft 279kts
13-Sep-20 10:14 31.824612 -107.079825 272 12018ft 281kts
13-Sep-20 10:15 31.824272 -107.171502 256 12020ft 280kts
13-Sep-20 10:16 31.818464 -107.263060 268 12003ft 282kts
13-Sep-20 10:17 31.818303 -107.355241 269 12000ft 282kts
13-Sep-20 10:18 31.818587 -107.447307 269 12000ft 281kts
13-Sep-20 10:19 31.818852 -107.539276 269 12001ft 281kts
13-Sep-20 10:20 31.823753 -107.630855 276 12001ft 281kts
13-Sep-20 10:21 31.834144 -107.722171 276 11998ft 281kts
13-Sep-20 10:22 31.843786 -107.813271 276 11998ft 281kts
13-Sep-20 10:23 31.853307 -107.904536 276 11999ft 281kts
13-Sep-20 10:24 31.862399 -107.995571 275 11999ft 281kts
13-Sep-20 10:25 31.871458 -108.086920 275 11999ft 281kts
13-Sep-20 10:26 31.880776 -108.178240 276 12000ft 281kts
13-Sep-20 10:27 31.890063 -108.269582 276 12005ft 281kts
13-Sep-20 10:28 31.899268 -108.360767 276 12029ft 280kts
13-Sep-20 10:29 31.908436 -108.452265 276 12054ft 280kts
13-Sep-20 10:30 31.917509 -108.543499 275 12065ft 281kts
13-Sep-20 10:31 31.926550 -108.635088 275 12065ft 281kts
13-Sep-20 10:32 31.935379 -108.725152 275 12062ft 281kts
13-Sep-20 10:33 31.944283 -108.816625 275 12063ft 281kts
13-Sep-20 10:34 31.953104 -108.908016 275 12063ft 281kts
13-Sep-20 10:35 31.961873 -108.999589 275 12046ft 281kts
13-Sep-20 10:36 31.970539 -109.090990 276 12038ft 277kts
13-Sep-20 10:37 31.979016 -109.180798 276 12029ft 275kts
13-Sep-20 10:38 31.987355 -109.269920 276 12008ft 273kts
13-Sep-20 10:39 31.995602 -109.358542 276 12008ft 272kts
13-Sep-20 10:40 32.003790 -109.447290 276 12008ft 272kts
13-Sep-20 10:41 32.011887 -109.535812 276 12008ft 272kts
13-Sep-20 10:42 32.019922 -109.624330 276 12008ft 272kts
13-Sep-20 10:43 32.027918 -109.713108 275 12007ft 272kts
13-Sep-20 10:44 32.035008 -109.802072 273 12008ft 272kts
13-Sep-20 10:45 32.039689 -109.890766 273 12007ft 272kts
13-Sep-20 10:46 32.044635 -109.979794 273 11990ft 272kts
13-Sep-20 10:47 32.049617 -110.068909 273 11956ft 272kts
13-Sep-20 10:48 32.054533 -110.157723 273 11922ft 272kts
13-Sep-20 10:49 32.059373 -110.246556 273 11916ft 271kts
13-Sep-20 10:50 32.064157 -110.335147 273 11967ft 269kts
13-Sep-20 10:51 32.069370 -110.423214 273 11990ft 270kts
13-Sep-20 10:52 32.074071 -110.511759 273 11990ft 270kts
13-Sep-20 10:53 32.078640 -110.600191 273 11990ft 270kts
13-Sep-20 10:54 32.083129 -110.688213 272 11990ft 270kts
13-Sep-20 10:55 32.087591 -110.776881 272 11993ft 270kts
13-Sep-20 10:56 32.102246 -110.861379 313 11982ft 268kts
13-Sep-20 10:57 32.154490 -110.924395 323 11947ft 270kts
13-Sep-20 10:58 32.210386 -110.973052 324 10037ft 236kts
13-Sep-20 10:59 32.261448 -111.017485 324 8029ft 210kts
13-Sep-20 11:00 32.303588 -111.054379 324 6076ft 182kts
13-Sep-20 11:01 32.332577 -111.096251 246 5960ft 168kts
13-Sep-20 11:02 32.298669 -111.129917 170 5958ft 156kts
13-Sep-20 11:03 32.260446 -111.107507 139 5771ft 156kts
13-Sep-20 11:04 32.230233 -111.073736 132 5180ft 137kts
13-Sep-20 11:05 32.205338 -111.043202 130 4933ft 123kts
13-Sep-20 11:06 32.179940 -111.014519 118 4441ft 135kts
13-Sep-20 11:07 32.152801 -110.982811 134 3586ft 125kts
13-Sep-20 11:08 32.132629 -110.958823 133 2921ft 83kts
13-Sep-20 11:09 32.120258 -110.944172 135 2645ft 0kts
13-Sep-20 11:10 32.117674 -110.940845 95 2645ft 11kts

Navigation Log

Ident Type
Flight plan parsing failed, navigation log unavailable